createdAt,value
2019-01-28T00:00:25.275Z,93206.92
2019-01-28T00:02:52.828Z,93208.00
2019-01-28T00:05:20.221Z,93217.22
2019-01-28T00:07:47.611Z,93223.92
2019-01-28T00:10:15.015Z,93212.36
2019-01-28T00:12:42.347Z,93212.32
2019-01-28T00:15:09.721Z,93219.67
2019-01-28T00:17:37.338Z,93219.36
2019-01-28T00:20:05.425Z,93230.60
2019-01-28T00:22:32.788Z,93225.89
2019-01-28T00:25:00.215Z,93221.89
2019-01-28T00:27:27.599Z,93226.81
2019-01-28T00:29:54.947Z,93231.03
2019-01-28T00:32:22.329Z,93219.92
2019-01-28T00:34:49.719Z,93219.92
2019-01-28T00:37:17.068Z,93224.84
2019-01-28T00:39:44.467Z,93227.88
2019-01-28T00:42:12.030Z,93227.81
2019-01-28T00:44:39.427Z,93234.81
2019-01-28T00:47:06.886Z,93234.38
2019-01-28T00:49:34.246Z,93232.24
2019-01-28T00:52:01.719Z,93236.67
2019-01-28T00:54:29.066Z,93244.23
2019-01-28T00:56:56.430Z,93246.20
2019-01-28T00:59:23.847Z,93249.73
2019-01-28T01:01:51.228Z,93260.76
2019-01-28T01:04:18.660Z,93245.94
2019-01-28T01:06:46.233Z,93246.55
2019-01-28T01:09:13.650Z,93252.55
2019-01-28T01:11:41.050Z,93261.30
2019-01-28T01:14:08.431Z,93260.30
2019-01-28T01:16:35.785Z,93271.30
2019-01-28T01:19:03.518Z,93282.75
2019-01-28T01:21:30.934Z,93258.48
2019-01-28T01:23:58.309Z,93264.14
2019-01-28T01:26:25.746Z,93269.50
2019-01-28T01:28:53.127Z,93281.32
2019-01-28T01:31:20.887Z,93290.18
2019-01-28T01:33:48.301Z,93302.92
2019-01-28T01:36:15.832Z,93302.56
2019-01-28T01:38:43.311Z,93312.89
2019-01-28T01:41:10.666Z,93314.56
2019-01-28T01:43:37.986Z,93303.86
2019-01-28T01:46:05.387Z,93318.50
2019-01-28T01:48:32.811Z,93334.81
2019-01-28T01:51:00.239Z,93331.67
2019-01-28T01:53:27.622Z,93337.06
2019-01-28T01:55:54.966Z,93328.78
2019-01-28T01:58:22.326Z,93352.13
2019-01-28T02:00:49.735Z,93353.17
2019-01-28T02:03:17.101Z,93349.38
2019-01-28T02:05:44.447Z,93343.70
2019-01-28T02:08:11.848Z,93363.27
2019-01-28T02:10:39.286Z,93356.20
2019-01-28T02:13:06.687Z,93357.81
2019-01-28T02:15:34.155Z,93357.81
2019-01-28T02:18:01.547Z,93353.98
2019-01-28T02:20:28.921Z,93371.56
2019-01-28T02:22:56.366Z,93366.63
2019-01-28T02:25:23.747Z,93354.70
2019-01-28T02:27:51.107Z,93385.09
2019-01-28T02:30:18.531Z,93382.73
2019-01-28T02:32:45.916Z,93390.45
2019-01-28T02:35:13.311Z,93377.73
2019-01-28T02:37:40.809Z,93369.07
2019-01-28T02:40:11.289Z,93387.89
2019-01-28T02:42:38.650Z,93387.33
2019-01-28T02:45:07.711Z,93395.22
2019-01-28T02:47:35.093Z,93391.72
2019-01-28T02:50:02.468Z,93392.70
2019-01-28T02:52:29.972Z,93398.08
2019-01-28T02:54:57.306Z,93395.84
2019-01-28T02:57:24.690Z,93396.05
2019-01-28T02:59:52.087Z,93404.58
2019-01-28T03:02:19.466Z,93406.10
2019-01-28T03:04:46.867Z,93398.95
2019-01-28T03:07:14.247Z,93410.47
2019-01-28T03:09:41.610Z,93423.22
2019-01-28T03:12:09.111Z,93428.47
2019-01-28T03:14:36.489Z,93427.75
2019-01-28T03:17:10.103Z,93426.34
2019-01-28T03:19:38.365Z,93420.52
2019-01-28T03:22:05.786Z,93425.31
2019-01-28T03:24:33.146Z,93427.42
2019-01-28T03:27:00.587Z,93434.36
2019-01-28T03:29:27.955Z,93432.38
2019-01-28T03:31:55.314Z,93437.06
2019-01-28T03:34:22.728Z,93443.66
2019-01-28T03:36:50.071Z,93447.89
2019-01-28T03:39:17.502Z,93449.63
2019-01-28T03:41:44.950Z,93452.88
2019-01-28T03:44:12.351Z,93452.88
2019-01-28T03:46:39.797Z,93461.66
2019-01-28T03:49:07.147Z,93456.63
2019-01-28T03:51:34.733Z,93452.66
2019-01-28T03:54:02.379Z,93455.50
2019-01-28T03:56:29.755Z,93464.92
2019-01-28T03:58:57.230Z,93463.80
2019-01-28T04:01:26.528Z,93472.86
2019-01-28T04:03:53.968Z,93480.82
2019-01-28T04:06:21.400Z,93480.45
2019-01-28T04:08:48.766Z,93488.68
2019-01-28T04:11:16.167Z,93489.50
2019-01-28T04:13:43.646Z,93483.13
2019-01-28T04:16:11.010Z,93478.86
2019-01-28T04:18:38.408Z,93478.05
2019-01-28T04:21:05.928Z,93478.52
2019-01-28T04:23:33.294Z,93486.04
2019-01-28T04:26:00.645Z,93493.45
2019-01-28T04:28:28.005Z,93497.33
2019-01-28T04:30:55.371Z,93491.66
2019-01-28T04:33:22.776Z,93491.66
2019-01-28T04:35:50.175Z,93497.63
2019-01-28T04:38:17.549Z,93502.67
2019-01-28T04:40:44.934Z,93494.15
2019-01-28T04:43:12.373Z,93496.92
2019-01-28T04:45:39.731Z,93496.92
2019-01-28T04:48:07.107Z,93498.77
2019-01-28T04:50:34.483Z,93505.34
2019-01-28T04:53:01.872Z,93501.04
2019-01-28T04:55:29.286Z,93498.31
2019-01-28T04:57:56.687Z,93496.94
2019-01-28T05:00:24.716Z,93497.48
2019-01-28T05:02:52.213Z,93496.01
2019-01-28T05:05:19.642Z,93494.56
2019-01-28T05:07:46.990Z,93495.95
2019-01-28T05:10:15.137Z,93487.48
2019-01-28T05:12:42.548Z,93480.70
2019-01-28T05:15:10.666Z,93477.50
2019-01-28T05:17:38.036Z,93480.53
2019-01-28T05:20:07.437Z,93482.80
2019-01-28T05:22:34.823Z,93487.22
2019-01-28T05:25:02.230Z,93483.66
2019-01-28T05:27:29.617Z,93482.91
2019-01-28T05:29:56.992Z,93486.30
2019-01-28T05:32:24.386Z,93490.08
2019-01-28T05:34:51.766Z,93491.83
2019-01-28T05:37:19.187Z,93493.73
2019-01-28T05:39:46.654Z,93495.75
2019-01-28T05:42:14.036Z,93500.45
2019-01-28T05:44:41.415Z,93509.70
2019-01-28T05:47:08.851Z,93508.22
2019-01-28T05:49:36.207Z,93505.48
2019-01-28T05:52:03.682Z,93502.36
2019-01-28T05:54:31.076Z,93498.87
2019-01-28T05:56:58.474Z,93501.45
2019-01-28T05:59:25.848Z,93509.88
2019-01-28T06:01:53.239Z,93511.62
2019-01-28T06:04:20.723Z,93519.42
2019-01-28T06:06:48.106Z,93514.11
2019-01-28T06:09:15.506Z,93508.68
2019-01-28T06:11:42.984Z,93503.09
2019-01-28T06:14:10.423Z,93502.94
2019-01-28T06:16:37.855Z,93502.30
2019-01-28T06:19:05.307Z,93504.88
2019-01-28T06:21:32.687Z,93510.96
2019-01-28T06:24:00.068Z,93506.94
2019-01-28T06:26:27.480Z,93511.06
2019-01-28T06:28:54.836Z,93517.48
2019-01-28T06:31:22.206Z,93526.39
2019-01-28T06:33:49.629Z,93528.67
2019-01-28T06:36:16.966Z,93531.41
2019-01-28T06:38:44.373Z,93525.91
2019-01-28T06:41:11.829Z,93535.70
2019-01-28T06:43:39.253Z,93538.59
2019-01-28T06:46:06.696Z,93541.23
2019-01-28T06:48:34.069Z,93539.78
2019-01-28T06:51:01.428Z,93537.83
2019-01-28T06:53:28.908Z,93539.13
2019-01-28T06:55:56.287Z,93544.54
2019-01-28T06:58:23.666Z,93541.27
2019-01-28T07:00:51.048Z,93543.27
2019-01-28T07:03:18.406Z,93556.27
2019-01-28T07:05:45.770Z,93566.91
2019-01-28T07:08:13.110Z,93567.06
2019-01-28T07:10:40.497Z,93571.41
2019-01-28T07:13:07.844Z,93571.88
2019-01-28T07:15:35.250Z,93573.72
2019-01-28T07:18:02.750Z,93571.81
2019-01-28T07:20:30.828Z,93569.98
2019-01-28T07:22:58.706Z,93568.79
2019-01-28T07:25:26.091Z,93566.58
2019-01-28T07:27:53.640Z,93561.91
2019-01-28T07:30:29.372Z,93553.66
2019-01-28T07:32:56.842Z,93557.77
2019-01-28T07:35:24.337Z,93566.01
2019-01-28T07:37:51.704Z,93574.30
2019-01-28T07:40:19.259Z,93581.45
2019-01-28T07:42:46.619Z,93590.16
2019-01-28T07:45:17.203Z,93580.08
2019-01-28T07:47:44.527Z,93581.00
2019-01-28T07:50:12.174Z,93584.00
2019-01-28T07:52:39.562Z,93588.88
2019-01-28T07:55:07.728Z,93581.33
2019-01-28T07:57:35.192Z,93580.31
2019-01-28T08:00:02.963Z,93581.77
2019-01-28T08:02:30.275Z,93578.30
2019-01-28T08:04:57.718Z,93579.37
2019-01-28T08:07:25.092Z,93579.37
2019-01-28T08:09:52.440Z,93582.13
2019-01-28T08:12:19.820Z,93582.13
2019-01-28T08:14:47.191Z,93580.14
2019-01-28T08:17:14.576Z,93580.14
2019-01-28T08:19:41.985Z,93571.03
2019-01-28T08:22:09.358Z,93578.40
2019-01-28T08:24:36.734Z,93579.41
2019-01-28T08:27:04.281Z,93580.96
2019-01-28T08:29:31.857Z,93580.96
2019-01-28T08:31:59.307Z,93583.98
2019-01-28T08:34:26.924Z,93589.83
2019-01-28T08:36:54.780Z,93581.33
2019-01-28T08:39:22.231Z,93575.34
2019-01-28T08:41:49.561Z,93573.22
2019-01-28T08:44:16.916Z,93574.44
2019-01-28T08:46:44.318Z,93582.55
2019-01-28T08:49:11.655Z,93578.02
2019-01-28T08:51:38.992Z,93579.11
2019-01-28T08:54:06.503Z,93576.01
2019-01-28T08:56:34.072Z,93576.78
2019-01-28T08:59:01.693Z,93576.83
2019-01-28T09:01:29.244Z,93569.78
2019-01-28T09:03:56.825Z,93579.47
2019-01-28T09:06:24.311Z,93571.75
2019-01-28T09:08:51.885Z,93569.78
2019-01-28T09:11:19.445Z,93572.61
2019-01-28T09:13:46.955Z,93563.84
2019-01-28T09:16:14.982Z,93567.56
2019-01-28T09:18:42.491Z,93566.35
2019-01-28T09:21:09.859Z,93568.19
2019-01-28T09:23:37.272Z,93564.94
2019-01-28T09:26:06.527Z,93576.63
2019-01-28T09:28:33.957Z,93564.69
2019-01-28T09:31:01.354Z,93558.52
2019-01-28T09:33:28.723Z,93561.70
2019-01-28T09:35:56.066Z,93549.67
2019-01-28T09:38:23.518Z,93563.80
2019-01-28T09:40:50.877Z,93563.38
2019-01-28T09:43:18.687Z,93570.73
2019-01-28T09:45:46.051Z,93570.58
2019-01-28T09:48:14.815Z,93562.25
2019-01-28T09:50:43.935Z,93561.40
2019-01-28T09:53:12.100Z,93564.36
2019-01-28T09:55:39.449Z,93561.72
2019-01-28T09:58:06.998Z,93558.45
2019-01-28T10:00:43.134Z,93558.23
2019-01-28T10:03:10.542Z,93559.65
2019-01-28T10:05:37.984Z,93553.75
2019-01-28T10:08:06.336Z,93549.61
2019-01-28T10:10:33.716Z,93549.55
2019-01-28T10:13:01.051Z,93554.05
2019-01-28T10:15:29.156Z,93551.69
2019-01-28T10:17:56.597Z,93549.98
2019-01-28T10:20:29.574Z,93541.47
2019-01-28T10:22:57.073Z,93536.08
2019-01-28T10:25:25.163Z,93539.13
2019-01-28T10:27:52.702Z,93538.85
2019-01-28T10:30:23.650Z,93533.72
2019-01-28T10:32:51.079Z,93526.39
2019-01-28T10:35:20.613Z,93526.80
2019-01-28T10:37:47.983Z,93529.36
2019-01-28T10:40:18.752Z,93531.02
2019-01-28T10:42:46.197Z,93529.89
2019-01-28T10:45:13.694Z,93533.49
2019-01-28T10:47:41.052Z,93529.33
2019-01-28T10:50:09.890Z,93523.08
2019-01-28T10:52:37.228Z,93525.66
2019-01-28T10:55:04.861Z,93526.09
2019-01-28T10:57:32.925Z,93520.14
2019-01-28T11:00:00.265Z,93519.61
2019-01-28T11:02:27.632Z,93514.09
2019-01-28T11:04:55.037Z,93522.61
2019-01-28T11:07:22.390Z,93510.81
2019-01-28T11:09:49.730Z,93520.72
2019-01-28T11:12:17.161Z,93516.39
2019-01-28T11:14:44.670Z,93509.73
2019-01-28T11:17:12.191Z,93513.63
2019-01-28T11:19:39.711Z,93514.82
2019-01-28T11:22:07.222Z,93519.52
2019-01-28T11:24:34.708Z,93513.65
2019-01-28T11:27:04.234Z,93507.75
2019-01-28T11:29:31.992Z,93506.16
2019-01-28T11:32:02.126Z,93506.73
2019-01-28T11:34:29.475Z,93505.55
2019-01-28T11:36:56.906Z,93508.69
2019-01-28T11:39:24.314Z,93505.45
2019-01-28T11:41:51.864Z,93499.39
2019-01-28T11:44:19.359Z,93498.75
2019-01-28T11:46:46.835Z,93495.95
2019-01-28T11:49:14.365Z,93496.11
2019-01-28T11:51:41.785Z,93498.56
2019-01-28T11:54:09.980Z,93508.13
2019-01-28T11:56:37.465Z,93510.20
2019-01-28T11:59:04.987Z,93515.09
2019-01-28T12:01:33.159Z,93513.02
2019-01-28T12:04:00.554Z,93515.73
2019-01-28T12:06:28.079Z,93518.31
2019-01-28T12:08:55.576Z,93527.64
2019-01-28T12:11:22.997Z,93520.70
2019-01-28T12:13:50.356Z,93522.83
2019-01-28T12:16:17.896Z,93522.84
2019-01-28T12:18:45.354Z,93520.87
2019-01-28T12:21:13.024Z,93519.42
2019-01-28T12:23:40.543Z,93526.01
2019-01-28T12:26:07.923Z,93520.72
2019-01-28T12:28:35.345Z,93516.91
2019-01-28T12:31:02.800Z,93512.63
2019-01-28T12:33:30.211Z,93514.29
2019-01-28T12:35:57.663Z,93508.20
2019-01-28T12:38:25.035Z,93513.25
2019-01-28T12:40:52.407Z,93512.77
2019-01-28T12:43:19.840Z,93514.06
2019-01-28T12:45:47.230Z,93517.87
2019-01-28T12:48:15.083Z,93513.34
2019-01-28T12:50:42.473Z,93510.88
2019-01-28T12:53:09.873Z,93515.23
2019-01-28T12:55:37.275Z,93508.66
2019-01-28T12:58:04.665Z,93511.73
2019-01-28T13:00:39.350Z,93512.33
2019-01-28T13:03:07.138Z,93510.62
2019-01-28T13:05:34.656Z,93506.90
2019-01-28T13:08:02.099Z,93506.38
2019-01-28T13:10:29.547Z,93514.83
2019-01-28T13:12:56.962Z,93513.14
2019-01-28T13:15:26.237Z,93512.30
2019-01-28T13:17:54.500Z,93513.64
2019-01-28T13:20:22.258Z,93516.66
2019-01-28T13:22:50.427Z,93506.23
2019-01-28T13:25:18.475Z,93513.21
2019-01-28T13:27:45.904Z,93514.98
2019-01-28T13:30:18.975Z,93515.73
2019-01-28T13:32:46.497Z,93523.48
2019-01-28T13:35:13.994Z,93524.02
2019-01-28T13:37:41.377Z,93522.40
2019-01-28T13:40:09.423Z,93521.35
2019-01-28T13:42:36.859Z,93528.03
2019-01-28T13:45:05.058Z,93527.12
2019-01-28T13:47:32.444Z,93541.24
2019-01-28T13:49:59.847Z,93536.61
2019-01-28T13:52:27.247Z,93534.10
2019-01-28T13:54:54.658Z,93532.73
2019-01-28T13:57:22.059Z,93534.52
2019-01-28T13:59:49.446Z,93543.52
2019-01-28T14:02:16.944Z,93545.61
2019-01-28T14:04:44.517Z,93550.75
2019-01-28T14:07:11.942Z,93551.52
2019-01-28T14:09:39.369Z,93553.53
2019-01-28T14:12:06.786Z,93548.27
2019-01-28T14:14:34.256Z,93553.92
2019-01-28T14:17:01.716Z,93552.78
2019-01-28T14:19:29.096Z,93560.66
2019-01-28T14:21:56.485Z,93570.23
2019-01-28T14:24:23.978Z,93574.77
2019-01-28T14:26:51.351Z,93571.83
2019-01-28T14:29:18.890Z,93577.70
2019-01-28T14:31:46.500Z,93573.29
2019-01-28T14:34:14.055Z,93573.50
2019-01-28T14:36:41.550Z,93574.30
2019-01-28T14:39:13.746Z,93581.97
2019-01-28T14:41:40.244Z,93584.13
2019-01-28T14:44:07.648Z,93586.85
2019-01-28T14:46:35.299Z,93595.22
2019-01-28T14:49:02.746Z,93592.05
2019-01-28T14:51:30.180Z,93590.75
2019-01-28T14:53:57.808Z,93595.98
2019-01-28T14:56:25.251Z,93592.83
2019-01-28T14:58:52.706Z,93598.97
2019-01-28T15:01:20.266Z,93610.30
2019-01-28T15:03:47.640Z,93614.38
2019-01-28T15:06:15.157Z,93617.65
2019-01-28T15:08:42.692Z,93616.66
2019-01-28T15:11:10.187Z,93620.84
2019-01-28T15:13:39.889Z,93618.09
2019-01-28T15:16:09.186Z,93616.77
2019-01-28T15:18:36.996Z,93626.66
2019-01-28T15:21:04.576Z,93632.47
2019-01-28T15:23:32.073Z,93633.80
2019-01-28T15:25:59.472Z,93632.25
2019-01-28T15:28:27.018Z,93642.29
2019-01-28T15:30:54.754Z,93642.70
2019-01-28T15:33:22.413Z,93643.84
2019-01-28T15:35:49.944Z,93647.19
2019-01-28T15:38:17.532Z,93652.86
2019-01-28T15:40:44.999Z,93654.78
2019-01-28T15:43:12.822Z,93652.85
2019-01-28T15:45:42.259Z,93652.70
2019-01-28T15:48:09.695Z,93652.75
2019-01-28T15:50:37.465Z,93650.59
2019-01-28T15:53:07.056Z,93654.17
2019-01-28T15:55:36.798Z,93661.84
2019-01-28T15:58:05.253Z,93669.02
2019-01-28T16:00:33.795Z,93671.44
2019-01-28T16:03:01.923Z,93675.41
2019-01-28T16:05:29.757Z,93680.98
2019-01-28T16:07:57.316Z,93680.48
2019-01-28T16:10:24.911Z,93680.98
2019-01-28T16:12:52.583Z,93684.13
2019-01-28T16:15:23.183Z,93679.69
2019-01-28T16:17:51.137Z,93681.83
2019-01-28T16:20:18.913Z,93686.10
2019-01-28T16:22:46.980Z,93685.88
2019-01-28T16:25:14.881Z,93695.45
2019-01-28T16:27:42.521Z,93689.97
2019-01-28T16:30:16.608Z,93703.52
2019-01-28T16:32:44.581Z,93700.19
2019-01-28T16:35:13.113Z,93701.81
2019-01-28T16:37:41.222Z,93703.55
2019-01-28T16:40:11.249Z,93702.73
2019-01-28T16:42:38.839Z,93702.19
2019-01-28T16:45:08.284Z,93711.13
2019-01-28T16:47:36.283Z,93721.14
2019-01-28T16:50:05.688Z,93724.77
2019-01-28T16:52:34.222Z,93725.61
2019-01-28T16:55:02.110Z,93729.28
2019-01-28T16:57:30.320Z,93734.52
2019-01-28T16:59:58.046Z,93737.67
2019-01-28T17:02:25.968Z,93741.28
2019-01-28T17:04:53.832Z,93742.47
2019-01-28T17:07:21.612Z,93755.75
2019-01-28T17:09:49.521Z,93750.66
2019-01-28T17:12:17.438Z,93763.28
2019-01-28T17:14:45.522Z,93769.25
2019-01-28T17:17:13.263Z,93768.16
2019-01-28T17:19:41.259Z,93769.08
2019-01-28T17:22:08.987Z,93761.17
2019-01-28T17:24:36.729Z,93767.41
2019-01-28T17:27:04.888Z,93765.73
2019-01-28T17:29:32.697Z,93775.59
2019-01-28T17:32:00.334Z,93783.31
2019-01-28T17:34:28.158Z,93777.70
2019-01-28T17:36:57.598Z,93778.62
2019-01-28T17:39:25.411Z,93788.75
2019-01-28T17:41:53.193Z,93798.86
2019-01-28T17:44:20.913Z,93795.36
2019-01-28T17:46:48.737Z,93799.88
2019-01-28T17:49:17.276Z,93800.51
2019-01-28T17:51:45.046Z,93805.48
2019-01-28T17:54:13.067Z,93812.39
2019-01-28T17:56:41.630Z,93805.69
2019-01-28T17:59:09.561Z,93813.58
2019-01-28T18:01:37.520Z,93818.00
2019-01-28T18:04:05.514Z,93824.90
2019-01-28T18:06:33.739Z,93826.45
2019-01-28T18:09:01.703Z,93836.55
2019-01-28T18:11:29.677Z,93829.48
2019-01-28T18:13:57.756Z,93825.91
2019-01-28T18:16:25.893Z,93819.91
2019-01-28T18:18:53.999Z,93835.09
2019-01-28T18:21:23.421Z,93837.53
2019-01-28T18:23:53.082Z,93838.33
2019-01-28T18:26:21.320Z,93849.03
2019-01-28T18:28:49.258Z,93854.16
2019-01-28T18:31:17.323Z,93855.20
2019-01-28T18:33:45.080Z,93858.81
2019-01-28T18:36:13.499Z,93863.92
2019-01-28T18:38:41.383Z,93865.05
2019-01-28T18:41:10.301Z,93863.50
2019-01-28T18:43:38.327Z,93870.97
2019-01-28T18:46:06.563Z,93871.23
2019-01-28T18:48:34.961Z,93871.70
2019-01-28T18:51:03.088Z,93870.41
2019-01-28T18:53:31.252Z,93880.41
2019-01-28T18:55:59.245Z,93881.17
2019-01-28T18:58:29.521Z,93887.34
2019-01-28T19:00:57.493Z,93888.23
2019-01-28T19:03:25.495Z,93889.27
2019-01-28T19:06:31.180Z,93890.94
2019-01-28T19:09:09.813Z,93890.73
2019-01-28T19:11:56.429Z,93890.09
2019-01-28T19:14:42.454Z,93893.85
2019-01-28T19:17:25.881Z,93896.14
2019-01-28T19:20:03.341Z,93892.94
2019-01-28T19:22:31.390Z,93900.75
2019-01-28T19:24:59.571Z,93912.64
2019-01-28T19:27:27.675Z,93916.50
2019-01-28T19:29:55.828Z,93911.24
2019-01-28T19:32:23.866Z,93913.27
2019-01-28T19:34:52.128Z,93918.33
2019-01-28T19:37:20.249Z,93918.50
2019-01-28T19:39:48.337Z,93919.41
2019-01-28T19:42:17.631Z,93924.84
2019-01-28T19:44:45.563Z,93925.11
2019-01-28T19:47:13.636Z,93934.13
2019-01-28T19:49:41.644Z,93940.56
2019-01-28T19:52:09.671Z,93941.66
2019-01-28T19:54:37.608Z,93938.84
2019-01-28T19:57:05.569Z,93946.38
2019-01-28T19:59:33.591Z,93947.97
2019-01-28T20:02:01.647Z,93955.78
2019-01-28T20:04:29.618Z,93953.02
2019-01-28T20:06:58.656Z,93969.23
2019-01-28T20:09:47.526Z,93958.45
2019-01-28T20:12:15.542Z,93974.73
2019-01-28T20:14:43.496Z,93981.73
2019-01-28T20:17:11.418Z,93980.28
2019-01-28T20:19:39.924Z,93984.95
2019-01-28T20:22:07.938Z,93989.48
2019-01-28T20:24:37.251Z,93990.66
2019-01-28T20:27:05.233Z,93997.20
2019-01-28T20:29:33.499Z,93998.48
2019-01-28T20:32:22.179Z,93993.70
2019-01-28T20:34:50.484Z,94001.36
2019-01-28T20:37:19.827Z,94009.17
2019-01-28T20:39:48.011Z,94009.52
2019-01-28T20:42:16.132Z,94015.02
2019-01-28T20:44:46.478Z,94020.72
2019-01-28T20:47:14.493Z,94025.78
2019-01-28T20:49:42.523Z,94028.54
2019-01-28T20:52:14.616Z,94035.81
2019-01-28T20:54:42.924Z,94036.08
2019-01-28T20:57:10.969Z,94036.22
2019-01-28T20:59:38.993Z,94036.30
2019-01-28T21:02:07.075Z,94037.96
2019-01-28T21:04:35.008Z,94042.05
2019-01-28T21:07:02.892Z,94046.84
2019-01-28T21:09:31.406Z,94052.02
2019-01-28T21:11:59.234Z,94060.30
2019-01-28T21:14:26.933Z,94056.13
2019-01-28T21:16:55.413Z,94057.33
2019-01-28T21:19:23.053Z,94053.42
2019-01-28T21:21:51.198Z,94066.00
2019-01-28T21:24:18.926Z,94066.69
2019-01-28T21:26:46.720Z,94068.06
2019-01-28T21:29:14.684Z,94065.95
2019-01-28T21:31:42.618Z,94066.41
2019-01-28T21:34:10.367Z,94068.96
2019-01-28T21:37:08.533Z,94069.42
2019-01-28T21:39:36.518Z,94064.29
2019-01-28T21:42:04.517Z,94072.59
2019-01-28T21:44:32.114Z,94074.53
2019-01-28T21:46:59.583Z,94077.86
2019-01-28T21:49:27.018Z,94073.22
2019-01-28T21:51:54.550Z,94078.95
2019-01-28T21:54:21.978Z,94089.89
2019-01-28T21:56:49.492Z,94089.89
2019-01-28T21:59:16.987Z,94081.50
2019-01-28T22:01:44.483Z,94082.62
2019-01-28T22:04:11.983Z,94086.22
2019-01-28T22:06:39.463Z,94088.63
2019-01-28T22:09:08.631Z,94086.77
2019-01-28T22:11:36.035Z,94093.58
2019-01-28T22:14:05.218Z,94102.59
2019-01-28T22:16:32.615Z,94101.83
2019-01-28T22:19:00.046Z,94098.30
2019-01-28T22:21:27.595Z,94098.41
2019-01-28T22:23:55.078Z,94102.11
2019-01-28T22:26:22.537Z,94104.73
2019-01-28T22:28:49.966Z,94103.16
2019-01-28T22:31:17.406Z,94108.53
2019-01-28T22:33:44.844Z,94106.48
2019-01-28T22:36:12.251Z,94107.03
2019-01-28T22:38:39.677Z,94118.01
2019-01-28T22:41:07.112Z,94117.94
2019-01-28T22:43:34.520Z,94120.65
2019-01-28T22:46:01.998Z,94121.91
2019-01-28T22:48:29.406Z,94126.67
2019-01-28T22:50:56.806Z,94126.31
2019-01-28T22:53:24.240Z,94128.64
2019-01-28T22:55:51.639Z,94141.30
2019-01-28T22:58:19.012Z,94141.84
2019-01-28T23:01:00.429Z,94143.63
2019-01-28T23:03:28.632Z,94147.50
2019-01-28T23:05:56.698Z,94145.63
2019-01-28T23:08:24.114Z,94155.46
2019-01-28T23:10:51.560Z,94145.71
2019-01-28T23:13:18.966Z,94154.48
2019-01-28T23:15:46.365Z,94163.41
2019-01-28T23:18:13.775Z,94162.81
2019-01-28T23:20:41.185Z,94163.83
2019-01-28T23:23:08.616Z,94163.19
2019-01-28T23:25:36.142Z,94165.66
2019-01-28T23:28:04.061Z,94173.86
2019-01-28T23:30:31.646Z,94174.31
2019-01-28T23:32:59.122Z,94175.09
2019-01-28T23:35:26.616Z,94176.52
2019-01-28T23:37:54.174Z,94165.61
2019-01-28T23:40:21.619Z,94170.13
2019-01-28T23:42:48.995Z,94173.81
2019-01-28T23:45:16.388Z,94171.69
2019-01-28T23:47:43.858Z,94179.92
2019-01-28T23:50:11.421Z,94188.20
2019-01-28T23:52:38.869Z,94196.52
2019-01-28T23:55:07.001Z,94198.16
2019-01-28T23:57:34.398Z,94196.97
